Time;durP1;ratioP1;P1;durP2;ratioP2;P2;SDS_P1;SDS_P2;PMS_P1;PMS_P2;Temp;Humidity;BMP_temperature;BMP_pressure;BME280_temperature;BME280_humidity;BME280_pressure;Samples;Min_cycle;Max_cycle;Signal;HPM_P1;HPM_P2
2022/06/01 00:08:04;;;;;;;3.93;2.40;;;;;;;24.02;43.38;100158.97;20777951;27;98074;-81
2022/06/01 00:18:05;;;;;;;4.15;2.70;;;;;;;24.01;43.27;100157.34;20787421;27;100881;-79
2022/06/01 00:28:05;;;;;;;3.92;2.40;;;;;;;24.00;43.21;100144.25;20791307;27;97263;-81
2022/06/01 00:38:06;;;;;;;4.20;2.40;;;;;;;24.00;43.34;100141.59;20789765;27;99116;-79
2022/06/01 00:48:07;;;;;;;3.63;2.40;;;;;;;23.97;43.46;100148.84;20789691;27;98252;-80
2022/06/01 00:58:13;;;;;;;8.35;2.58;;;;;;;23.93;43.20;100134.22;20781793;27;99484;-79
2022/06/01 01:08:16;;;;;;;4.03;2.20;;;;;;;23.93;43.41;100144.00;20794544;27;99687;-79
2022/06/01 01:18:23;;;;;;;2.85;2.30;;;;;;;23.90;43.35;100147.72;20799236;27;97133;-80
2022/06/01 01:28:23;;;;;;;6.03;2.45;;;;;;;23.89;43.37;100150.50;20794731;27;101150;-79
2022/06/01 01:38:34;;;;;;;4.50;2.33;;;;;;;23.87;43.69;100136.59;20784778;27;102168;-80
2022/06/01 01:48:36;;;;;;;5.07;2.20;;;;;;;23.86;43.54;100130.47;20797358;27;97020;-80
2022/06/01 01:59:09;;;;;;;3.67;2.60;;;;;;;23.83;43.54;100128.94;20789174;27;99757;-79
2022/06/01 02:09:13;;;;;;;7.57;2.50;;;;;;;23.84;43.63;100137.72;20765780;27;99436;-78
2022/06/01 02:19:20;;;;;;;6.05;2.42;;;;;;;23.82;43.64;100123.81;20797763;27;99412;-81
2022/06/01 02:29:34;;;;;;;2.47;2.22;;;;;;;23.81;43.38;100128.28;20784647;27;97700;-81
2022/06/01 02:39:39;;;;;;;2.78;2.30;;;;;;;23.79;43.59;100119.63;20783904;27;98874;-80
2022/06/01 02:49:40;;;;;;;2.90;2.30;;;;;;;23.79;43.67;100124.06;20780178;27;97053;-80
2022/06/01 02:59:42;;;;;;;2.27;2.07;;;;;;;23.78;43.55;100114.50;20799522;27;98007;-80
2022/06/01 03:09:42;;;;;;;5.87;2.37;;;;;;;23.76;43.68;100108.50;20760175;27;98050;-81
2022/06/01 03:19:43;;;;;;;5.07;2.42;;;;;;;23.76;43.78;100095.28;20784037;27;98601;-81
2022/06/01 03:29:45;;;;;;;4.65;2.50;;;;;;;23.75;43.79;100112.94;20777738;27;97233;-80
2022/06/01 03:39:45;;;;;;;5.83;2.97;;;;;;;23.73;43.97;100127.28;20792058;27;98590;-79
2022/06/01 03:49:46;;;;;;;3.17;2.55;;;;;;;23.74;44.23;100168.63;20767387;27;100331;-79
2022/06/01 03:59:46;;;;;;;3.22;2.50;;;;;;;23.75;43.68;100197.53;20790709;27;101811;-82
2022/06/01 04:09:47;;;;;;;4.33;2.20;;;;;;;23.73;44.29;100201.31;20762812;27;98250;-80
2022/06/01 04:19:49;;;;;;;5.47;2.60;;;;;;;23.80;44.40;100192.69;20767509;27;100436;-83
2022/06/01 04:29:51;;;;;;;5.07;2.70;;;;;;;23.81;45.24;100185.59;20791815;27;100503;-77
2022/06/01 04:39:51;;;;;;;11.40;3.00;;;;;;;23.85;45.30;100202.00;20792505;27;100142;-79
2022/06/01 04:49:52;;;;;;;5.13;2.53;;;;;;;23.86;45.35;100212.44;20792168;27;97735;-77
2022/06/01 04:59:52;;;;;;;12.10;3.90;;;;;;;23.86;46.04;100193.91;20786124;27;97013;-78
2022/06/01 05:09:53;;;;;;;18.30;5.05;;;;;;;23.84;46.72;100185.31;20768340;27;97235;-78
2022/06/01 05:19:53;;;;;;;15.40;4.70;;;;;;;23.85;46.94;100184.31;20792959;27;97815;-80
2022/06/01 05:29:55;;;;;;;9.82;4.90;;;;;;;23.87;46.70;100192.13;20787324;27;102224;-81
2022/06/01 05:39:55;;;;;;;15.07;5.30;;;;;;;23.88;46.83;100218.41;20778867;27;97866;-80
2022/06/01 05:49:56;;;;;;;12.32;5.30;;;;;;;23.89;46.75;100228.03;20798781;27;97317;-80
2022/06/01 05:59:57;;;;;;;9.75;5.22;;;;;;;23.89;46.77;100228.03;20817415;27;97525;-80
2022/06/01 06:09:58;;;;;;;13.77;5.80;;;;;;;23.90;46.48;100236.78;20799400;27;99306;-81
2022/06/01 06:19:59;;;;;;;10.87;5.70;;;;;;;23.88;46.66;100238.75;20817505;27;97007;-80
2022/06/01 06:29:59;;;;;;;7.22;4.90;;;;;;;23.90;46.43;100244.72;20790395;27;98568;-81
2022/06/01 06:40:00;;;;;;;7.90;5.00;;;;;;;23.88;46.24;100247.50;20783575;27;98380;-82
2022/06/01 06:50:03;;;;;;;9.00;5.28;;;;;;;23.89;46.29;100272.13;20822670;27;96878;-81
2022/06/01 07:00:07;;;;;;;10.93;5.25;;;;;;;23.90;46.17;100287.88;20780340;27;97652;-84
2022/06/01 07:10:08;;;;;;;7.75;4.75;;;;;;;23.89;46.30;100298.56;20789256;27;97020;-86
2022/06/01 07:20:09;;;;;;;8.07;5.43;;;;;;;23.91;46.67;100294.00;20810807;27;98323;-85
2022/06/01 07:30:11;;;;;;;6.23;5.10;;;;;;;23.89;46.51;100293.28;20803924;27;96914;-86
2022/06/01 07:50:33;;;;;;;5.60;4.57;;;;;;;23.86;46.46;100304.97;20825200;27;96936;-85
2022/06/01 08:00:33;;;;;;;6.60;4.77;;;;;;;23.88;46.39;100304.88;20793031;27;97602;-85
2022/06/01 08:10:34;;;;;;;6.10;4.57;;;;;;;23.89;45.97;100319.72;20810787;27;99145;-85
2022/06/01 08:20:35;;;;;;;6.32;4.30;;;;;;;23.89;45.92;100317.94;20813225;27;97561;-84
2022/06/01 08:30:38;;;;;;;5.72;4.20;;;;;;;23.91;45.66;100320.44;20786261;27;97015;-84
2022/06/01 08:41:03;;;;;;;4.72;3.90;;;;;;;23.91;45.67;100328.38;20793376;27;97738;-85
2022/06/01 08:51:04;;;;;;;5.82;3.78;;;;;;;23.90;45.68;100337.28;20795268;27;97232;-85
2022/06/01 09:01:15;;;;;;;6.17;4.03;;;;;;;23.91;45.65;100329.22;20814490;27;97083;-84
2022/06/01 09:11:35;;;;;;;4.65;4.00;;;;;;;23.90;45.63;100335.47;20786097;27;97442;-84
2022/06/01 09:32:07;;;;;;;5.07;3.65;;;;;;;23.89;45.35;100352.31;20822336;27;97734;-84
2022/06/01 09:42:47;;;;;;;5.18;3.97;;;;;;;23.89;45.35;100347.03;20819564;27;97377;-85
2022/06/01 09:52:49;;;;;;;6.82;4.60;;;;;;;23.92;45.00;100344.13;20770806;27;97987;-84
2022/06/01 10:13:25;;;;;;;4.32;3.85;;;;;;;23.91;45.24;100339.81;20818647;27;99217;-84
2022/06/01 10:23:39;;;;;;;5.13;3.40;;;;;;;23.92;45.10;100346.75;20826000;27;97145;-85
2022/06/01 10:33:57;;;;;;;3.97;3.30;;;;;;;23.96;44.97;100348.19;20821155;27;97396;-85
2022/06/01 10:44:10;;;;;;;5.68;4.20;;;;;;;24.01;44.99;100357.50;20799865;27;96879;-83
2022/06/01 10:54:18;;;;;;;4.93;4.05;;;;;;;24.04;44.96;100347.47;20821589;27;100306;-84
2022/06/01 11:04:49;;;;;;;5.57;4.57;;;;;;;24.08;45.01;100342.75;20812365;27;97038;-83
2022/06/01 11:14:56;;;;;;;6.10;4.70;;;;;;;24.13;44.70;100353.75;20793402;27;96857;-85
2022/06/01 11:25:33;;;;;;;6.32;5.07;;;;;;;24.18;44.75;100348.03;20817641;27;100449;-84
2022/06/01 11:35:40;;;;;;;12.60;5.28;;;;;;;24.22;44.78;100350.28;20789489;27;97067;-84
2022/06/01 11:45:50;;;;;;;5.43;4.40;;;;;;;24.29;44.49;100338.16;20779308;27;96927;-84
2022/06/01 11:56:08;;;;;;;8.52;4.38;;;;;;;24.35;44.37;100344.69;20817004;27;100202;-85
2022/06/01 12:06:31;;;;;;;7.35;4.20;;;;;;;24.42;43.94;100337.84;20814883;27;97057;-85
2022/06/01 12:16:32;;;;;;;5.78;4.30;;;;;;;24.51;43.73;100345.91;20811611;27;98669;-85
2022/06/01 12:37:08;;;;;;;4.85;4.00;;;;;;;24.62;43.12;100327.25;20815959;27;96970;-86
2022/06/01 12:47:41;;;;;;;6.00;3.88;;;;;;;24.69;42.82;100316.94;20797787;27;100077;-81
2022/06/01 12:57:51;;;;;;;6.60;3.85;;;;;;;24.76;42.83;100320.69;20802880;27;97840;-79
2022/06/01 13:07:57;;;;;;;4.60;3.38;;;;;;;24.84;41.92;100314.66;20804481;27;97206;-81
2022/06/01 13:18:13;;;;;;;4.30;3.33;;;;;;;24.87;41.75;100317.03;20794243;27;97759;-80
2022/06/01 13:28:15;;;;;;;5.38;3.47;;;;;;;24.92;41.59;100312.94;20812874;27;99066;-81
2022/06/01 13:38:33;;;;;;;5.28;3.42;;;;;;;24.98;40.88;100302.75;20818063;27;99569;-85
2022/06/01 13:48:40;;;;;;;6.00;3.10;;;;;;;25.01;40.60;100287.41;20810394;27;97672;-83
2022/06/01 13:58:59;;;;;;;6.03;3.13;;;;;;;25.06;40.05;100286.94;20822796;27;97673;-84
2022/06/01 14:09:01;;;;;;;7.53;2.88;;;;;;;25.10;39.87;100278.56;20810736;27;97735;-84
2022/06/01 14:19:08;;;;;;;5.90;2.80;;;;;;;25.13;39.66;100261.53;20821438;27;96935;-84
2022/06/01 14:29:08;;;;;;;2.42;2.20;;;;;;;25.16;39.48;100263.91;20823884;27;100969;-85
2022/06/01 14:39:11;;;;;;;3.20;2.20;;;;;;;25.17;39.36;100256.78;20816231;27;99075;-85
2022/06/01 14:49:14;;;;;;;2.35;2.00;;;;;;;25.18;38.91;100256.66;20801963;27;98643;-84
2022/06/01 14:59:15;;;;;;;2.00;1.67;;;;;;;25.22;38.98;100246.59;20792515;27;98375;-84
2022/06/01 15:09:16;;;;;;;2.07;1.67;;;;;;;25.20;38.74;100240.59;20798323;27;99872;-84
2022/06/01 15:19:19;;;;;;;2.07;1.60;;;;;;;25.18;37.98;100248.69;20791643;27;97416;-84
2022/06/01 15:39:43;;;;;;;3.40;1.48;;;;;;;25.10;36.46;100244.13;20816902;27;97141;-84
2022/06/01 15:49:43;;;;;;;1.50;1.33;;;;;;;25.12;36.71;100233.41;20792209;27;97998;-84
2022/06/01 15:59:44;;;;;;;13.90;2.17;;;;;;;25.10;37.05;100246.78;20796892;27;97431;-85
2022/06/01 16:09:44;;;;;;;1.98;1.40;;;;;;;25.10;39.26;100238.81;20796327;27;97690;-86
2022/06/01 16:19:47;;;;;;;8.30;1.80;;;;;;;25.09;39.23;100241.63;20808501;27;100005;-84
2022/06/01 16:29:49;;;;;;;5.30;1.67;;;;;;;25.09;38.34;100247.75;20778290;27;100957;-83
2022/06/01 16:39:49;;;;;;;2.40;1.40;;;;;;;25.01;37.52;100239.72;20793411;27;97080;-82
2022/06/01 16:49:50;;;;;;;2.10;1.40;;;;;;;25.00;36.99;100238.06;20784587;27;98673;-80
2022/06/01 16:59:51;;;;;;;5.18;1.55;;;;;;;25.03;37.06;100229.78;20795868;27;98297;-79
2022/06/01 17:09:52;;;;;;;3.53;1.50;;;;;;;25.03;37.26;100231.63;20767339;27;99715;-80
2022/06/01 17:19:52;;;;;;;8.95;4.75;;;;;;;25.00;36.20;100235.41;20787670;27;98445;-80
2022/06/01 17:29:53;;;;;;;3.50;2.80;;;;;;;25.00;35.56;100240.72;20784160;27;97345;-79
2022/06/01 17:39:54;;;;;;;92.07;37.13;;;;;;;25.02;37.23;100248.50;20781296;27;99814;-79
2022/06/01 17:49:54;;;;;;;53.63;22.33;;;;;;;25.03;38.06;100240.41;20768424;27;97713;-78
2022/06/01 17:59:55;;;;;;;45.97;16.23;;;;;;;25.04;38.43;100239.41;20733305;27;99686;-78
2022/06/01 18:09:58;;;;;;;33.37;12.57;;;;;;;25.05;38.10;100233.16;20789676;27;100704;-78
2022/06/01 18:19:58;;;;;;;24.73;10.40;;;;;;;25.06;38.22;100236.59;20752046;27;97608;-79
2022/06/01 18:29:59;;;;;;;17.05;7.22;;;;;;;25.07;38.14;100239.13;20718965;27;100823;-76
2022/06/01 18:39:59;;;;;;;12.95;6.30;;;;;;;25.06;38.08;100242.75;20767747;27;98084;-78
2022/06/01 18:50:00;;;;;;;10.65;4.43;;;;;;;25.09;38.28;100246.94;20764575;27;98094;-82
2022/06/01 19:10:20;;;;;;;10.95;4.25;;;;;;;25.13;38.18;100269.47;20778321;27;97632;-79
2022/06/01 19:20:22;;;;;;;11.35;3.95;;;;;;;25.12;38.30;100270.50;20775935;27;97811;-80
2022/06/01 19:30:24;;;;;;;9.48;4.38;;;;;;;25.08;38.26;100288.50;20787189;27;96944;-81
2022/06/01 19:50:45;;;;;;;9.80;3.90;;;;;;;24.99;38.59;100289.38;20813252;27;97779;-81
2022/06/01 20:00:47;;;;;;;7.97;3.25;;;;;;;24.98;38.99;100284.22;20771394;27;97079;-83
2022/06/01 20:10:47;;;;;;;10.38;3.60;;;;;;;24.93;38.96;100296.06;20788441;27;97899;-83
2022/06/01 20:20:48;;;;;;;5.68;2.85;;;;;;;24.88;39.17;100271.03;20777973;27;100154;-83
2022/06/01 20:30:49;;;;;;;4.27;2.87;;;;;;;24.85;39.31;100263.34;20775892;27;97607;-83
2022/06/01 20:40:50;;;;;;;8.45;3.30;;;;;;;24.81;39.43;100262.81;20757625;27;97642;-83
2022/06/01 20:50:51;;;;;;;7.00;3.17;;;;;;;24.76;39.65;100271.19;20796988;27;99291;-82
2022/06/01 21:00:51;;;;;;;5.65;2.75;;;;;;;24.74;39.54;100273.16;20751721;27;98224;-82
2022/06/01 21:10:53;;;;;;;5.13;2.85;;;;;;;24.72;39.88;100293.66;20769609;27;99019;-82
2022/06/01 21:20:54;;;;;;;5.65;2.72;;;;;;;24.71;40.05;100294.63;20767535;27;97880;-82
2022/06/01 21:30:55;;;;;;;5.38;2.70;;;;;;;24.68;40.06;100296.72;20773550;27;98897;-82
2022/06/01 21:40:56;;;;;;;5.20;2.60;;;;;;;24.65;40.10;100297.00;20779339;27;97787;-82
2022/06/01 21:50:56;;;;;;;5.30;2.70;;;;;;;24.64;40.32;100312.03;20782156;27;97844;-82
2022/06/01 22:01:07;;;;;;;8.23;2.85;;;;;;;24.61;40.44;100310.50;20790060;27;98305;-82
2022/06/01 22:21:30;;;;;;;3.75;2.58;;;;;;;24.57;40.58;100317.06;20786425;27;97243;-81
2022/06/01 22:31:33;;;;;;;4.18;2.42;;;;;;;24.55;40.79;100315.56;20770625;27;97479;-80
2022/06/01 22:41:54;;;;;;;4.22;2.20;;;;;;;24.51;40.86;100317.66;20780074;27;99493;-82
2022/06/01 22:51:57;;;;;;;4.17;2.57;;;;;;;24.51;40.91;100312.34;20765542;27;97998;-82
2022/06/01 23:01:57;;;;;;;3.53;2.50;;;;;;;24.51;40.86;100309.72;20766994;27;97933;-81
2022/06/01 23:11:58;;;;;;;2.97;2.28;;;;;;;24.51;40.92;100322.09;20764358;27;97847;-82
2022/06/01 23:22:01;;;;;;;3.88;2.53;;;;;;;24.48;41.06;100323.22;20776715;27;100850;-81
2022/06/01 23:32:20;;;;;;;4.82;2.00;;;;;;;24.46;41.20;100309.28;20785675;27;98468;-82
2022/06/01 23:42:34;;;;;;;3.58;2.08;;;;;;;24.46;41.15;100309.28;20785827;27;98261;-82
2022/06/01 23:52:44;;;;;;;3.13;1.73;;;;;;;24.44;41.29;100303.31;20762992;27;97367;-82
